Flight Track Log - Related Links

Times and Time Zones

All times are in EDT time to prevent confusion due to time zone crossing. See the KAP4761 flight status page for this flight to view local times or setup timezone preferences in your user account.

Time Position Orientation Groundspeed Altitude Reporting Facility
EDT Latitude Longitude Course Direction KTS MPH feet Rate Location/Type
Fri 02:51:11 PM 18.2000 -63.1500 270° West 150 173 3,400  Level San Juan Center
Fri 02:52:12 PM 18.2000 -63.2000 270° West 160 184 4,000 595 Climbing San Juan Center
Fri 02:53:12 PM 18.1833 -63.2500 251° West 160 184 4,600 600 Climbing San Juan Center
Fri 02:54:12 PM 18.1833 -63.2833 270° West 170 196 5,200 600 Climbing San Juan Center
Fri 02:55:12 PM 18.1667 -63.3333 251° West 160 184 5,800 545 Climbing San Juan Center
Fri 02:56:13 PM 18.1500 -63.3833 251° West 170 196 6,300 496 Climbing San Juan Center
Fri 02:57:13 PM 18.1500 -63.4333 270° West 170 196 6,800 500 Climbing San Juan Center
Fri 02:58:13 PM 18.1500 -63.4833 270° West 170 196 7,300 446 Climbing San Juan Center
Fri 02:59:14 PM 18.1333 -63.5333 251° West 180 207 7,700 496 Climbing San Juan Center
Fri 03:00:14 PM 18.1333 -63.5833 270° West 180 207 8,300 150 Climbing San Juan Center
Fri 03:01:14 PM 18.1167 -63.6500 255° West 200 230 8,000 -149 Descending San Juan Center
Fri 03:02:15 PM 18.1333 -63.7000 289° West 210 242 8,000  Level San Juan Center
Fri 03:03:15 PM 18.1333 -63.7667 270° West 210 242 8,000  Level San Juan Center
Fri 03:04:15 PM 18.1500 -63.8167 289° West 200 230 8,000  Level San Juan Center
Fri 03:05:16 PM 18.1500 -63.8833 270° West 210 242 8,000  Level San Juan Center
Fri 03:06:16 PM 18.1667 -63.9500 285° West 210 242 8,000  Level San Juan Center
Fri 03:07:16 PM 18.1833 -64.0000 289° West 210 242 8,000  Level San Juan Center
Fri 03:08:17 PM 18.1833 -64.0667 270° West 200 230 8,000  Level San Juan Center
Fri 03:09:17 PM 18.1833 -64.1167 270° West 200 230 8,000  Level San Juan Center
Fri 03:10:17 PM 18.2000 -64.1833 285° West 200 230 8,000  Level San Juan Center
Fri 03:11:18 PM 18.2000 -64.2333 270° West 210 242 8,000  Level San Juan Center
Fri 03:12:18 PM 18.2167 -64.3000 285° West 210 242 8,000  Level San Juan Center
Fri 03:13:18 PM 18.2167 -64.3667 270° West 200 230 8,000  Level San Juan Center
Fri 03:14:19 PM 18.2333 -64.4167 289° West 200 230 8,000  Level San Juan Center
Fri 03:15:19 PM 18.2333 -64.4833 270° West 200 230 8,000  Level San Juan Center
Fri 03:16:19 PM 18.2500 -64.5333 289° West 210 242 8,000  Level San Juan Center
Fri 03:17:19 PM 18.2500 -64.6000 270° West 210 242 8,000  Level San Juan Center
Fri 03:18:20 PM 18.2667 -64.6667 285° West 200 230 8,000  Level San Juan Center
Fri 03:19:20 PM 18.2667 -64.7167 270° West 210 242 8,000  Level San Juan Center
Fri 03:20:20 PM 18.2833 -64.7833 285° West 210 242 8,000  Level San Juan Center
Fri 03:21:21 PM 18.2833 -64.8500 270° West 210 242 8,000  Level San Juan Center
Fri 03:22:21 PM 18.3000 -64.9000 289° West 200 230 8,000  Level San Juan Center
Fri 03:23:21 PM 18.3000 -64.9667 270° West 220 253 8,000  Level San Juan Center
Fri 03:24:21 PM 18.3000 -65.0333 270° West 230 265 8,000  Level San Juan Center
Fri 03:25:21 PM 18.3167 -65.0833 289° West 210 242 8,000  Level San Juan Center
Fri 03:26:22 PM 18.3167 -65.1500 270° West 210 242 8,000  Level San Juan Center
Fri 03:27:22 PM 18.3333 -65.2000 289° West 200 230 8,000  Level San Juan Center
Fri 03:28:22 PM 18.3333 -65.2667 270° West 210 242 8,000 -149 Level San Juan Center
Fri 03:29:23 PM 18.3500 -65.3333 285° West 210 242 7,700 -446 Descending San Juan Center
Fri 03:30:23 PM 18.3500 -65.4000 270° West 220 253 7,100 -550 Descending San Juan Center
Fri 03:31:23 PM 18.3667 -65.4667 285° West 220 253 6,600 -545 Descending San Juan Center
Fri 03:32:24 PM 18.3667 -65.5167 270° West 220 253 6,000 -298 Descending San Juan Center
Fri 03:33:24 PM 18.3833 -65.5833 285° West 210 242 6,000  Level San Juan Center
Fri 03:34:24 PM 18.3833 -65.6333 270° West 190 219 6,000  Level San Juan Center
Fri 03:35:25 PM 18.3833 -65.7000 270° West 200 230 6,000  Level San Juan Center
Fri 03:36:25 PM 18.3833 -65.7500 270° West 190 219 6,000  Level San Juan Center
Fri 03:37:25 PM 18.3833 -65.8167 270° West 190 219 6,000  Level San Juan Center
Fri 03:39:00 PM 18.4109 -65.8994 289° West  Level FlightAware Approximate
Fri 03:46:00 PM 18.4333 -66.0000 270° West  Level FlightAware Approximate
Fri 03:47:00 PM 18.4393 -66.0020 270° West  Level Estimated
Fri 03:48:00 PM 18.4333 -66.0000 270° West  Level FlightAware Approximate
Fri 03:49:00 PM 18.4393 -66.0020 270° West  Level Estimated
Fri 03:50:00 PM 18.4333 -66.0000 270° West  Level FlightAware Approximate
Fri 03:51:00 PM 18.4393 -66.0020 270° West  Level Estimated
Fri 03:52:00 PM 18.4333 -66.0000 270° West  Level FlightAware Approximate
Fri 03:53:00 PM 18.4393 -66.0020 270° West  Level Estimated
Fri 03:54:00 PM 18.4333 -66.0000 270° West  Level FlightAware Approximate
Fri 03:55:00 PM 18.4393 -66.0020 270° West  Level Estimated
Fri 03:56:00 PM 18.4333 -66.0000 270° West  Level FlightAware Approximate
Fri 03:57:00 PM 18.4393 -66.0020 270° West  Level Estimated
Fri 03:58:00 PM 18.4333 -66.0000 270° West  Level FlightAware Approximate
Fri 03:59:00 PM 18.4393 -66.0020 270° West  Level Estimated
Fri 04:00:00 PM 18.4333 -66.0000 270° West  Level FlightAware Approximate
Fri 04:01:00 PM 18.4393 -66.0020 270° West  Level Estimated
Fri 04:02:00 PM 18.4333 -66.0000 270° West  Level FlightAware Approximate

Login

Don't have an account? Register now (free) for customized features, flight alerts, and more!